Time;durP1;ratioP1;P1;durP2;ratioP2;P2;SDS_P1;SDS_P2;PMS_P1;PMS_P2;Temp;Humidity;BMP_temperature;BMP_pressure;BME280_temperature;BME280_humidity;BME280_pressure;Samples;Min_cycle;Max_cycle;Signal;HPM_P1;HPM_P2
2022/12/24 00:01:39;;;;;;;14.20;8.23;;;;;;;5.75;100.00;99845.03;4936950;29;20561;-75
2022/12/24 00:04:09;;;;;;;9.25;6.82;;;;;;;5.71;100.00;99846.47;4942698;29;20196;-75
2022/12/24 00:06:38;;;;;;;9.15;6.32;;;;;;;5.67;100.00;99844.16;4939965;29;20319;-75
2022/12/24 00:09:09;;;;;;;8.30;5.68;;;;;;;5.62;100.00;99845.75;4943278;29;20324;-75
2022/12/24 00:11:39;;;;;;;11.20;6.13;;;;;;;5.61;100.00;99838.75;4937125;29;20200;-75
2022/12/24 00:14:08;;;;;;;8.98;5.75;;;;;;;5.62;100.00;99846.59;4932733;29;20184;-75
2022/12/24 00:16:38;;;;;;;8.63;6.18;;;;;;;5.64;100.00;99841.03;4936897;29;20196;-75
2022/12/24 00:19:07;;;;;;;10.15;6.05;;;;;;;5.60;100.00;99845.97;4929599;29;20714;-75
2022/12/24 00:21:36;;;;;;;10.00;5.40;;;;;;;5.64;100.00;99841.03;4936247;29;20257;-75
2022/12/24 00:24:07;;;;;;;11.70;6.82;;;;;;;5.63;100.00;99842.06;4929941;29;20243;-75
2022/12/24 00:26:36;;;;;;;10.50;5.85;;;;;;;5.60;100.00;99835.25;4923376;29;20216;-75
2022/12/24 00:29:05;;;;;;;6.13;4.55;;;;;;;5.63;100.00;99842.91;4936871;29;20247;-75
2022/12/24 00:31:35;;;;;;;11.98;5.93;;;;;;;5.60;100.00;99842.47;4936229;29;20223;-75
2022/12/24 00:34:04;;;;;;;11.32;6.45;;;;;;;5.55;100.00;99839.53;4936054;29;20556;-75
2022/12/24 00:36:33;;;;;;;13.82;6.72;;;;;;;5.54;100.00;99845.91;4941747;29;20195;-75
2022/12/24 00:39:02;;;;;;;10.13;6.00;;;;;;;5.58;100.00;99839.13;4954273;29;20219;-75
2022/12/24 00:41:32;;;;;;;13.98;5.10;;;;;;;5.57;100.00;99834.78;4935625;29;20181;-75
2022/12/24 00:44:04;;;;;;;12.30;6.43;;;;;;;5.47;100.00;99837.00;4945475;29;20244;-74
2022/12/24 00:46:35;;;;;;;7.93;6.20;;;;;;;5.45;100.00;99845.25;4918686;29;20228;-74
2022/12/24 00:49:05;;;;;;;17.23;6.80;;;;;;;5.46;100.00;99851.44;4944111;28;20727;-75
2022/12/24 00:51:35;;;;;;;11.65;6.88;;;;;;;5.50;100.00;99856.22;4935546;29;20599;-74
2022/12/24 00:54:05;;;;;;;10.48;6.50;;;;;;;5.53;100.00;99858.50;4937594;29;20247;-74
2022/12/24 00:56:36;;;;;;;10.55;5.40;;;;;;;5.51;100.00;99860.56;4945796;29;20189;-74
2022/12/24 00:59:05;;;;;;;10.88;6.10;;;;;;;5.44;100.00;99854.31;4938045;29;20240;-74
2022/12/24 01:01:35;;;;;;;14.13;7.90;;;;;;;5.46;100.00;99864.84;4944236;29;20198;-73
2022/12/24 01:06:51;;;;;;;12.40;6.10;;;;;;;5.49;100.00;99870.66;4939348;29;20201;-74
2022/12/24 01:09:21;;;;;;;15.20;6.57;;;;;;;5.49;100.00;99873.34;4925825;29;20220;-74
2022/12/24 01:11:51;;;;;;;6.88;5.50;;;;;;;5.45;100.00;99877.44;4938729;29;20275;-74
2022/12/24 01:14:21;;;;;;;12.40;6.82;;;;;;;5.49;100.00;99872.50;4935539;29;20192;-74
2022/12/24 01:16:50;;;;;;;9.98;6.85;;;;;;;5.46;100.00;99875.59;4938792;29;20215;-73
2022/12/24 01:19:19;;;;;;;16.73;5.75;;;;;;;5.47;100.00;99883.44;4936078;29;20221;-74
2022/12/24 01:21:48;;;;;;;9.52;6.93;;;;;;;5.50;100.00;99885.75;4936076;29;20200;-74
2022/12/24 01:24:18;;;;;;;10.73;5.50;;;;;;;5.54;100.00;99881.63;4935553;29;20273;-74
2022/12/24 01:26:47;;;;;;;12.75;7.93;;;;;;;5.51;100.00;99884.72;4935300;29;20268;-75
2022/12/24 01:29:18;;;;;;;13.32;7.53;;;;;;;5.44;100.00;99888.34;4939173;28;20248;-74
2022/12/24 01:31:49;;;;;;;10.60;7.30;;;;;;;5.46;100.00;99884.47;4942226;29;20330;-74
2022/12/24 01:34:18;;;;;;;12.52;8.15;;;;;;;5.44;100.00;99886.50;4947527;28;20196;-74
2022/12/24 01:36:48;;;;;;;12.77;8.05;;;;;;;5.47;100.00;99891.47;4929535;29;20197;-74
2022/12/24 01:39:17;;;;;;;15.65;8.02;;;;;;;5.39;100.00;99882.75;4935505;29;20216;-74
2022/12/24 01:44:36;;;;;;;15.27;8.10;;;;;;;5.41;100.00;99886.91;4935585;29;20244;-74
2022/12/24 01:47:12;;;;;;;12.70;7.35;;;;;;;5.50;100.00;99893.78;4935375;29;20649;-74
2022/12/24 01:49:45;;;;;;;13.73;9.00;;;;;;;5.48;100.00;99895.81;4935040;29;20509;-74
2022/12/24 01:52:18;;;;;;;16.73;10.82;;;;;;;5.41;100.00;99902.16;4935131;29;20225;-75
2022/12/24 01:54:50;;;;;;;14.80;7.50;;;;;;;5.41;100.00;99907.53;4935262;29;20291;-74
2022/12/24 01:57:24;;;;;;;14.20;7.43;;;;;;;5.45;100.00;99915.00;4935011;29;20249;-75
2022/12/24 01:59:58;;;;;;;15.07;8.82;;;;;;;5.53;100.00;99912.19;4937347;29;20200;-74
2022/12/24 02:02:28;;;;;;;18.80;10.30;;;;;;;5.52;100.00;99921.25;4944751;29;20220;-74
2022/12/24 02:05:03;;;;;;;16.85;9.55;;;;;;;5.45;100.00;99919.53;4938754;29;20192;-74
2022/12/24 02:07:33;;;;;;;12.13;8.13;;;;;;;5.50;100.00;99920.63;4943060;29;20215;-74
2022/12/24 02:10:04;;;;;;;16.40;9.07;;;;;;;5.51;100.00;99924.13;4938566;29;20228;-74
2022/12/24 02:12:37;;;;;;;13.10;8.77;;;;;;;5.54;100.00;99934.47;4942738;29;20214;-74
2022/12/24 02:15:13;;;;;;;16.05;8.32;;;;;;;5.54;100.00;99940.69;4951328;29;20581;-74
2022/12/24 02:17:52;;;;;;;15.82;8.88;;;;;;;5.46;100.00;99948.88;4953340;29;20225;-74
2022/12/24 02:20:50;;;;;;;11.55;7.60;;;;;;;5.46;100.00;99939.97;4937245;29;20207;-74
2022/12/24 02:23:48;;;;;;;14.68;8.00;;;;;;;5.45;100.00;99949.88;4928205;29;20208;-74
2022/12/24 02:26:34;;;;;;;17.23;8.63;;;;;;;5.52;100.00;99952.63;4932060;29;20614;-76
2022/12/24 02:29:24;;;;;;;13.32;7.78;;;;;;;5.52;100.00;99953.44;4922322;29;20299;-74
2022/12/24 02:32:02;;;;;;;19.80;9.90;;;;;;;5.56;100.00;99957.44;4940310;29;20205;-75
2022/12/24 02:34:37;;;;;;;20.92;9.35;;;;;;;5.51;100.00;99959.84;4939739;29;20333;-74
2022/12/24 02:37:12;;;;;;;20.90;10.73;;;;;;;5.59;100.00;99965.09;4950307;29;20192;-74
2022/12/24 02:39:46;;;;;;;18.45;11.13;;;;;;;5.53;100.00;99973.06;4939152;29;20223;-74
2022/12/24 02:42:22;;;;;;;13.73;9.57;;;;;;;5.61;100.00;99981.00;4938931;29;20260;-75
2022/12/24 02:44:57;;;;;;;17.98;9.73;;;;;;;5.61;100.00;99972.94;4939144;29;20192;-74
2022/12/24 02:47:30;;;;;;;14.48;8.45;;;;;;;5.60;100.00;99977.50;4942063;29;20208;-74
2022/12/24 02:50:04;;;;;;;12.23;8.70;;;;;;;5.63;100.00;99976.25;4938330;29;20773;-73
2022/12/24 02:52:36;;;;;;;11.75;7.28;;;;;;;5.56;100.00;99983.44;4938873;29;20240;-74
2022/12/24 02:55:09;;;;;;;15.95;9.10;;;;;;;5.54;100.00;99988.97;4947931;29;20695;-76
2022/12/24 02:57:53;;;;;;;14.30;9.45;;;;;;;5.67;100.00;99989.09;4937854;29;20688;-74
2022/12/24 03:00:24;;;;;;;13.48;10.35;;;;;;;5.65;100.00;99993.00;4940476;29;20191;-74
2022/12/24 03:03:12;;;;;;;10.60;7.70;;;;;;;5.68;100.00;99993.44;4937237;29;20197;-74
2022/12/24 03:05:48;;;;;;;13.25;7.18;;;;;;;5.68;100.00;99989.94;4936937;29;20192;-74
2022/12/24 03:08:28;;;;;;;14.88;9.57;;;;;;;5.64;100.00;99999.41;4936808;29;20306;-74
2022/12/24 03:11:02;;;;;;;13.65;7.78;;;;;;;5.58;100.00;100000.16;4921588;29;20669;-73
2022/12/24 03:13:32;;;;;;;20.90;10.98;;;;;;;5.65;100.00;100007.25;4947767;29;20195;-74
2022/12/24 03:16:04;;;;;;;13.95;8.85;;;;;;;5.61;100.00;99995.25;4940453;29;20205;-74
2022/12/24 03:18:38;;;;;;;15.80;8.63;;;;;;;5.59;100.00;100002.66;4952017;29;20212;-75
2022/12/24 03:21:10;;;;;;;16.05;7.50;;;;;;;5.55;100.00;100001.38;4939329;29;20681;-75
2022/12/24 03:23:40;;;;;;;15.25;9.00;;;;;;;5.60;100.00;100001.63;4942608;29;20224;-74
2022/12/24 03:26:12;;;;;;;16.17;8.00;;;;;;;5.54;100.00;100004.25;4940972;29;20219;-74
2022/12/24 03:28:43;;;;;;;17.25;9.50;;;;;;;5.59;100.00;100008.03;4936553;29;20221;-74
2022/12/24 03:31:13;;;;;;;16.75;9.30;;;;;;;5.54;100.00;100015.81;4936441;29;20204;-75
2022/12/24 03:33:44;;;;;;;15.63;6.70;;;;;;;5.52;100.00;100020.53;4936876;29;20193;-74
2022/12/24 03:36:13;;;;;;;16.73;8.73;;;;;;;5.56;100.00;100023.69;4947489;29;20219;-74
2022/12/24 03:38:43;;;;;;;12.45;7.43;;;;;;;5.54;100.00;100026.56;4951533;29;20235;-74
2022/12/24 03:41:12;;;;;;;15.95;8.57;;;;;;;5.46;100.00;100026.69;4937700;29;20192;-74
2022/12/24 03:43:41;;;;;;;15.85;10.15;;;;;;;5.56;100.00;100032.56;4952668;29;20196;-75
2022/12/24 03:46:10;;;;;;;13.75;7.50;;;;;;;5.54;100.00;100029.25;4939416;29;20200;-74
2022/12/24 03:48:39;;;;;;;16.58;8.40;;;;;;;5.62;100.00;100039.00;4938480;29;20229;-74
2022/12/24 03:51:18;;;;;;;13.40;7.45;;;;;;;5.52;100.00;100035.78;4938233;29;20272;-75
2022/12/24 03:53:47;;;;;;;12.23;6.53;;;;;;;5.50;100.00;100046.75;4937556;29;20198;-74
2022/12/24 03:56:17;;;;;;;14.88;8.50;;;;;;;5.46;100.00;100048.16;4937341;29;20689;-74
2022/12/24 03:58:46;;;;;;;15.35;8.45;;;;;;;5.54;100.00;100053.38;4936275;29;20257;-74
2022/12/24 04:01:15;;;;;;;15.38;8.75;;;;;;;5.47;100.00;100059.72;4945476;29;20196;-74
2022/12/24 04:03:44;;;;;;;15.40;9.63;;;;;;;5.52;100.00;100060.78;4942798;29;20275;-74
2022/12/24 04:06:17;;;;;;;13.07;8.77;;;;;;;5.50;100.00;100067.38;4923643;29;20288;-74
2022/12/24 04:08:47;;;;;;;14.73;9.38;;;;;;;5.54;100.00;100064.13;4936860;29;20358;-74
2022/12/24 04:11:17;;;;;;;12.55;8.32;;;;;;;5.52;100.00;100066.16;4936723;29;20243;-75
2022/12/24 04:13:46;;;;;;;12.88;9.27;;;;;;;5.51;100.00;100059.16;4951972;29;20192;-74
2022/12/24 04:16:16;;;;;;;16.63;9.80;;;;;;;5.45;100.00;100051.84;4936207;29;20532;-74
2022/12/24 04:18:46;;;;;;;12.35;7.90;;;;;;;5.47;100.00;100047.09;4921965;29;20252;-75
2022/12/24 04:21:16;;;;;;;15.50;10.20;;;;;;;5.44;100.00;100055.53;4936552;29;20200;-74
2022/12/24 04:23:46;;;;;;;20.92;10.32;;;;;;;5.45;100.00;100070.63;4935566;29;20197;-75
2022/12/24 04:26:15;;;;;;;11.35;9.00;;;;;;;5.45;100.00;100070.63;4935800;29;20212;-74
2022/12/24 04:28:44;;;;;;;12.07;7.75;;;;;;;5.46;100.00;100069.63;4935500;29;20231;-74
2022/12/24 04:31:15;;;;;;;9.98;6.75;;;;;;;5.48;100.00;100078.28;4939228;29;20188;-74
2022/12/24 04:33:44;;;;;;;10.95;7.78;;;;;;;5.55;100.00;100078.38;4927999;29;20201;-75
2022/12/24 04:36:17;;;;;;;11.85;8.57;;;;;;;5.51;100.00;100085.97;4935633;29;20673;-76
2022/12/24 04:38:47;;;;;;;13.43;8.07;;;;;;;5.54;100.00;100082.91;4951261;29;20270;-74
2022/12/24 04:41:19;;;;;;;12.10;7.15;;;;;;;5.53;100.00;100091.97;4924694;29;20585;-75
2022/12/24 04:43:53;;;;;;;15.93;7.40;;;;;;;5.48;100.00;100099.75;4942211;29;20200;-74
2022/12/24 04:46:25;;;;;;;16.15;8.88;;;;;;;5.48;100.00;100097.06;4957338;29;20239;-74
2022/12/24 04:48:55;;;;;;;12.30;7.20;;;;;;;5.56;100.00;100104.19;4945431;29;20236;-73
2022/12/24 04:51:26;;;;;;;13.65;7.45;;;;;;;5.51;100.00;100111.97;4939599;29;20228;-73
2022/12/24 04:53:56;;;;;;;15.82;6.70;;;;;;;5.52;100.00;100109.09;4941721;29;20196;-74
2022/12/24 04:56:27;;;;;;;16.30;8.27;;;;;;;5.63;100.00;100105.94;4941618;29;20658;-74
2022/12/24 04:58:56;;;;;;;11.85;7.30;;;;;;;5.69;100.00;100109.72;4941139;29;20292;-74
2022/12/24 05:01:27;;;;;;;13.43;8.00;;;;;;;5.62;100.00;100115.00;4942206;29;20192;-74
2022/12/24 05:03:57;;;;;;;11.60;6.97;;;;;;;5.60;100.00;100122.41;4946548;29;20189;-76
2022/12/24 05:06:31;;;;;;;11.95;7.10;;;;;;;5.60;100.00;100119.72;4942817;29;20267;-75
2022/12/24 05:09:01;;;;;;;15.13;9.32;;;;;;;5.57;100.00;100122.78;4938445;29;20209;-73
2022/12/24 05:11:31;;;;;;;9.45;7.00;;;;;;;5.65;100.00;100119.16;4936661;29;20197;-74
2022/12/24 05:14:00;;;;;;;17.70;7.43;;;;;;;5.65;100.00;100116.47;4937053;29;20196;-75
2022/12/24 05:16:29;;;;;;;11.38;8.63;;;;;;;5.66;100.00;100127.00;4937578;29;20189;-74
2022/12/24 05:18:59;;;;;;;12.82;7.90;;;;;;;5.69;100.00;100117.75;4937484;29;20307;-74
2022/12/24 05:21:29;;;;;;;15.00;8.48;;;;;;;5.61;100.00;100124.09;4948146;29;20197;-74
2022/12/24 05:26:49;;;;;;;11.63;7.57;;;;;;;5.68;100.00;100124.13;4942729;29;20235;-74
2022/12/24 05:29:18;;;;;;;10.25;8.13;;;;;;;5.80;100.00;100116.44;4943222;29;20212;-74
2022/12/24 05:31:47;;;;;;;12.55;7.80;;;;;;;5.79;100.00;100120.97;4934559;29;20189;-75
2022/12/24 05:34:17;;;;;;;15.40;8.27;;;;;;;5.76;100.00;100120.53;4936298;29;20211;-74
2022/12/24 05:36:47;;;;;;;10.25;6.85;;;;;;;5.71;100.00;100120.25;4938914;29;20264;-74
2022/12/24 05:39:18;;;;;;;11.68;7.00;;;;;;;5.74;100.00;100127.94;4923651;29;20216;-74
2022/12/24 05:41:47;;;;;;;11.98;7.70;;;;;;;5.68;100.00;100119.59;4921392;29;20208;-74
2022/12/24 05:44:16;;;;;;;13.48;6.50;;;;;;;5.78;100.00;100123.84;4946075;29;20248;-74
2022/12/24 05:46:45;;;;;;;15.68;7.03;;;;;;;5.73;100.00;100129.78;4938667;29;20200;-74
2022/12/24 05:49:15;;;;;;;13.10;6.97;;;;;;;5.76;100.00;100139.31;4944831;29;20243;-74
2022/12/24 05:51:44;;;;;;;12.30;6.70;;;;;;;5.67;100.00;100139.41;4955153;28;20200;-72
2022/12/24 05:54:14;;;;;;;12.38;7.22;;;;;;;5.81;100.00;100144.97;4945175;29;20196;-74
2022/12/24 05:56:43;;;;;;;13.68;7.28;;;;;;;5.71;100.00;100139.06;4947908;29;20200;-74
2022/12/24 05:59:13;;;;;;;10.70;5.57;;;;;;;5.68;100.00;100142.94;4937537;29;20234;-74
2022/12/24 06:01:45;;;;;;;9.93;7.20;;;;;;;5.71;100.00;100152.47;4948509;29;20206;-74
2022/12/24 06:04:15;;;;;;;12.00;6.72;;;;;;;5.71;100.00;100156.00;4938381;29;20235;-74
2022/12/24 06:06:44;;;;;;;13.68;9.05;;;;;;;5.73;100.00;100159.31;4941151;29;20207;-75
2022/12/24 06:09:15;;;;;;;10.48;6.80;;;;;;;5.76;100.00;100163.47;4941405;29;20646;-74
2022/12/24 06:11:44;;;;;;;10.55;7.40;;;;;;;5.81;100.00;100161.88;4944706;29;20204;-75
2022/12/24 06:14:13;;;;;;;11.05;7.47;;;;;;;5.74;100.00;100160.16;4925911;29;20201;-74
2022/12/24 06:16:44;;;;;;;12.90;7.38;;;;;;;5.72;100.00;100163.00;4925225;29;20196;-75
2022/12/24 06:19:13;;;;;;;10.55;7.63;;;;;;;5.74;100.00;100173.56;4939677;29;20208;-74
2022/12/24 06:21:42;;;;;;;13.73;7.85;;;;;;;5.70;100.00;100181.16;4939780;29;20189;-73
2022/12/24 06:24:11;;;;;;;16.05;7.57;;;;;;;5.86;100.00;100180.94;4925699;29;20197;-74
2022/12/24 06:26:41;;;;;;;18.92;7.93;;;;;;;5.95;100.00;100181.72;4939232;29;20193;-74
2022/12/24 06:29:10;;;;;;;12.25;7.53;;;;;;;5.79;100.00;100189.94;4937426;29;20208;-74
2022/12/24 06:31:39;;;;;;;9.57;6.78;;;;;;;5.85;100.00;100189.19;4943801;29;20216;-75
2022/12/24 06:34:08;;;;;;;11.07;8.15;;;;;;;5.85;100.00;100199.94;4937712;29;20241;-74
2022/12/24 06:36:37;;;;;;;11.38;6.80;;;;;;;5.74;100.00;100203.09;4920221;29;20618;-74
2022/12/24 06:39:06;;;;;;;15.40;7.45;;;;;;;5.83;100.00;100207.34;4942064;29;20220;-74
2022/12/24 06:41:35;;;;;;;9.50;6.38;;;;;;;5.85;100.00;100205.31;4937452;29;20228;-73
2022/12/24 06:44:05;;;;;;;11.43;7.90;;;;;;;5.87;100.00;100208.66;4937715;29;20191;-74
2022/12/24 06:46:34;;;;;;;17.90;8.18;;;;;;;5.89;100.00;100212.00;4936467;29;20201;-74
2022/12/24 06:49:03;;;;;;;15.93;9.13;;;;;;;5.88;100.00;100204.94;4945899;29;20239;-74
2022/12/24 06:51:32;;;;;;;14.70;8.93;;;;;;;5.89;100.00;100212.81;4949152;29;20239;-74
2022/12/24 06:54:01;;;;;;;13.23;7.53;;;;;;;5.90;100.00;100213.66;4943943;29;20205;-73
2022/12/24 06:56:30;;;;;;;15.68;8.73;;;;;;;5.89;100.00;100212.00;4942071;29;20191;-72
2022/12/24 06:58:59;;;;;;;14.30;8.05;;;;;;;5.77;100.00;100213.44;4947136;29;20277;-74
2022/12/24 07:01:34;;;;;;;14.07;9.27;;;;;;;5.71;100.00;100219.59;4934086;29;20214;-73
2022/12/24 07:04:04;;;;;;;15.27;9.23;;;;;;;5.81;100.00;100226.31;4941098;29;20225;-73
2022/12/24 07:06:33;;;;;;;15.35;8.80;;;;;;;5.87;100.00;100227.44;4940511;29;20226;-72
2022/12/24 07:09:02;;;;;;;14.30;9.60;;;;;;;5.84;100.00;100225.13;4936644;29;20593;-73
2022/12/24 07:11:31;;;;;;;12.65;7.43;;;;;;;5.82;100.00;100232.50;4936774;29;20689;-74
2022/12/24 07:13:59;;;;;;;13.25;7.70;;;;;;;5.78;100.00;100233.91;4936865;29;20224;-74
2022/12/24 07:16:28;;;;;;;12.57;7.80;;;;;;;5.75;100.00;100247.72;4936685;29;20197;-74
2022/12/24 07:18:59;;;;;;;10.10;7.30;;;;;;;5.94;100.00;100256.06;4937062;29;20252;-75
2022/12/24 07:21:28;;;;;;;14.57;8.57;;;;;;;5.98;100.00;100265.41;4937243;29;20208;-74
2022/12/24 07:23:57;;;;;;;14.70;9.63;;;;;;;6.09;100.00;100264.94;4937908;29;20189;-75
2022/12/24 07:26:26;;;;;;;12.02;7.15;;;;;;;5.99;100.00;100280.50;4941588;29;20184;-74
2022/12/24 07:28:55;;;;;;;16.42;8.88;;;;;;;6.00;100.00;100275.97;4940511;29;20565;-75
2022/12/24 07:31:24;;;;;;;14.77;8.75;;;;;;;5.94;100.00;100279.41;4941371;29;20200;-74
2022/12/24 07:33:53;;;;;;;14.90;9.10;;;;;;;5.89;100.00;100281.81;4953928;29;20248;-74
2022/12/24 07:36:23;;;;;;;17.42;8.77;;;;;;;5.92;100.00;100284.09;4946719;29;20291;-74
2022/12/24 07:38:52;;;;;;;11.32;6.85;;;;;;;5.90;100.00;100278.94;4937024;29;20599;-73
2022/12/24 07:41:21;;;;;;;10.30;7.45;;;;;;;5.86;100.00;100279.44;4936693;29;20203;-75
2022/12/24 07:43:50;;;;;;;14.55;7.63;;;;;;;5.86;100.00;100279.44;4936803;29;20545;-74
2022/12/24 07:46:19;;;;;;;9.60;6.78;;;;;;;5.91;100.00;100279.75;4948613;29;20202;-74
2022/12/24 07:48:48;;;;;;;13.43;7.43;;;;;;;5.82;100.00;100288.91;4922041;29;20327;-74
2022/12/24 07:51:17;;;;;;;13.48;7.68;;;;;;;5.87;100.00;100294.56;4936480;29;20211;-74
2022/12/24 07:53:47;;;;;;;19.35;9.13;;;;;;;5.82;100.00;100302.31;4936305;29;20196;-73
2022/12/24 07:56:17;;;;;;;10.85;7.07;;;;;;;5.81;100.00;100308.72;4917020;29;20230;-74
2022/12/24 07:58:46;;;;;;;15.65;7.60;;;;;;;5.90;100.00;100305.81;4936999;29;20228;-73
2022/12/24 08:01:15;;;;;;;11.05;7.10;;;;;;;6.04;100.00;100301.44;4951643;29;20193;-73
2022/12/24 08:03:44;;;;;;;13.73;8.18;;;;;;;5.98;100.00;100302.16;4964210;29;20219;-75
2022/12/24 08:06:13;;;;;;;12.13;6.55;;;;;;;5.95;100.00;100302.56;4972497;29;20184;-74
2022/12/24 08:08:43;;;;;;;11.52;7.10;;;;;;;5.99;100.00;100309.22;4944287;29;20216;-75
2022/12/24 08:11:13;;;;;;;13.45;7.25;;;;;;;6.02;100.00;100306.97;4941438;29;20206;-74
2022/12/24 08:13:42;;;;;;;14.57;8.00;;;;;;;6.01;100.00;100307.16;4958616;29;20740;-74
2022/12/24 08:16:11;;;;;;;11.65;7.35;;;;;;;5.96;100.00;100312.25;4958542;29;20267;-74
2022/12/24 08:18:40;;;;;;;10.70;6.35;;;;;;;6.01;100.00;100312.53;4962326;29;20216;-73
2022/12/24 08:21:09;;;;;;;13.35;7.50;;;;;;;6.07;100.00;100317.16;4966929;29;20192;-73
2022/12/24 08:23:38;;;;;;;9.65;7.50;;;;;;;6.08;100.00;100319.66;4959599;29;20181;-73
2022/12/24 08:26:08;;;;;;;11.55;6.95;;;;;;;6.00;100.00;100317.06;4956560;29;20261;-73
2022/12/24 08:28:39;;;;;;;9.30;6.53;;;;;;;5.98;100.00;100318.28;4956730;29;20268;-73
2022/12/24 08:31:08;;;;;;;13.68;8.80;;;;;;;5.90;100.00;100315.69;4958131;29;20224;-74
2022/12/24 08:33:37;;;;;;;15.05;7.53;;;;;;;6.02;100.00;100325.78;4956180;29;20208;-73
2022/12/24 08:36:06;;;;;;;11.40;7.50;;;;;;;5.97;100.00;100332.72;4955045;29;20203;-73
2022/12/24 08:38:35;;;;;;;11.27;8.23;;;;;;;5.97;100.00;100332.72;4935058;29;20772;-73
2022/12/24 08:41:05;;;;;;;11.57;7.72;;;;;;;6.04;100.00;100331.81;4936880;29;20635;-74
2022/12/24 08:43:34;;;;;;;11.13;7.90;;;;;;;6.06;100.00;100332.44;4937655;29;20197;-73
2022/12/24 08:46:06;;;;;;;11.50;7.75;;;;;;;5.96;100.00;100336.41;4936404;29;20564;-75
2022/12/24 08:48:36;;;;;;;15.48;9.00;;;;;;;5.91;100.00;100342.34;4935707;29;20237;-73
2022/12/24 08:51:08;;;;;;;11.85;7.65;;;;;;;6.02;100.00;100341.91;4953850;29;20215;-74
2022/12/24 08:53:38;;;;;;;11.90;7.28;;;;;;;6.03;100.00;100348.94;4912914;29;20291;-74
2022/12/24 08:56:09;;;;;;;13.95;8.07;;;;;;;6.11;100.00;100353.38;4947285;29;20197;-73
2022/12/24 08:58:38;;;;;;;14.20;7.80;;;;;;;6.03;100.00;100348.09;4941673;29;20299;-73
2022/12/24 09:01:13;;;;;;;17.65;9.40;;;;;;;6.11;100.00;100346.16;4935904;29;20191;-73
2022/12/24 09:03:43;;;;;;;14.55;8.15;;;;;;;6.28;100.00;100349.47;4936102;29;20190;-73
2022/12/24 09:06:13;;;;;;;13.85;8.40;;;;;;;6.32;100.00;100357.97;4922075;29;20639;-73
2022/12/24 09:08:42;;;;;;;10.38;7.85;;;;;;;6.22;100.00;100350.22;4929105;29;20227;-73
2022/12/24 09:11:13;;;;;;;17.98;7.88;;;;;;;6.34;100.00;100354.06;4946805;29;20213;-73
2022/12/24 09:13:43;;;;;;;9.15;5.35;;;;;;;6.33;100.00;100371.25;4948456;29;20188;-73
2022/12/24 09:16:13;;;;;;;10.68;6.72;;;;;;;6.29;100.00;100369.97;4941162;29;20251;-73
2022/12/24 09:18:43;;;;;;;13.43;7.60;;;;;;;6.36;100.00;100376.22;4940213;29;20592;-73
2022/12/24 09:21:16;;;;;;;11.05;7.13;;;;;;;6.51;100.00;100373.53;4939665;29;20188;-73
2022/12/24 09:23:47;;;;;;;14.88;7.65;;;;;;;6.43;100.00;100382.53;4939366;29;20211;-73
2022/12/24 09:26:17;;;;;;;9.23;7.07;;;;;;;6.53;100.00;100383.06;4936681;29;20677;-72
2022/12/24 09:28:47;;;;;;;9.23;6.68;;;;;;;6.55;100.00;100396.31;4922160;29;20247;-73
2022/12/24 09:31:17;;;;;;;10.95;6.88;;;;;;;6.46;100.00;100390.22;4939305;29;20720;-74
2022/12/24 09:33:48;;;;;;;14.82;6.93;;;;;;;6.40;100.00;100385.59;4942870;29;20662;-74
2022/12/24 09:36:17;;;;;;;9.70;6.88;;;;;;;6.36;100.00;100389.66;4942870;29;20199;-74
2022/12/24 09:38:47;;;;;;;17.50;8.80;;;;;;;6.39;100.00;100407.28;4947561;29;20811;-74
2022/12/24 09:41:24;;;;;;;12.35;7.65;;;;;;;6.44;100.00;100418.28;4946872;29;20189;-73
2022/12/24 09:43:58;;;;;;;11.77;7.20;;;;;;;6.55;100.00;100418.66;4941226;29;20192;-72
2022/12/24 09:46:34;;;;;;;15.73;7.90;;;;;;;6.58;100.00;100424.69;4910331;29;20208;-73
2022/12/24 09:49:06;;;;;;;11.98;6.45;;;;;;;6.46;100.00;100424.31;4942813;23;20224;-77
2022/12/24 09:51:40;;;;;;;12.50;7.32;;;;;;;6.45;100.00;100425.34;4950717;29;20220;-78
2022/12/24 09:54:16;;;;;;;15.38;7.97;;;;;;;6.37;100.00;100434.34;4953124;29;20195;-78
2022/12/24 09:56:47;;;;;;;12.35;7.03;;;;;;;6.50;100.00;100437.19;4954095;29;20207;-77
2022/12/24 09:59:21;;;;;;;12.55;7.55;;;;;;;6.42;100.00;100431.94;4973839;29;20180;-78
2022/12/24 10:01:54;;;;;;;17.50;8.48;;;;;;;6.49;100.00;100435.53;4971727;29;20271;-79
2022/12/24 10:04:29;;;;;;;13.23;7.55;;;;;;;6.60;100.00;100439.59;4972806;29;20177;-79
2022/12/24 10:07:12;;;;;;;11.00;6.55;;;;;;;6.55;100.00;100450.91;4974770;28;20187;-79
2022/12/24 10:09:54;;;;;;;13.93;8.77;;;;;;;6.66;100.00;100455.00;4970361;29;20176;-78
2022/12/24 10:12:36;;;;;;;17.10;8.55;;;;;;;6.55;100.00;100455.44;4975212;29;20251;-77
2022/12/24 10:15:18;;;;;;;10.63;8.00;;;;;;;6.62;100.00;100452.88;4956535;29;20204;-77
2022/12/24 10:18:05;;;;;;;22.92;9.95;;;;;;;6.69;100.00;100457.28;4972416;28;20686;-77
2022/12/24 10:20:44;;;;;;;10.75;7.82;;;;;;;6.64;100.00;100466.94;4972757;28;20176;-79
2022/12/24 10:23:20;;;;;;;13.48;8.57;;;;;;;6.70;100.00;100468.88;4955444;29;20291;-79
2022/12/24 10:25:59;;;;;;;12.63;8.10;;;;;;;6.81;100.00;100461.19;4972846;29;20211;-78
2022/12/24 10:28:45;;;;;;;15.57;9.35;;;;;;;6.85;100.00;100467.00;4971972;28;20212;-79
2022/12/24 10:31:15;;;;;;;17.38;9.85;;;;;;;6.86;100.00;100488.34;4971189;29;20572;-79
2022/12/24 10:33:50;;;;;;;13.68;10.20;;;;;;;6.85;100.00;100483.16;4954720;29;20214;-79
2022/12/24 10:36:26;;;;;;;16.05;10.65;;;;;;;7.21;100.00;100485.88;4971963;29;20408;-78
2022/12/24 10:38:56;;;;;;;15.00;10.38;;;;;;;7.22;100.00;100490.19;4954545;29;20220;-79
2022/12/24 10:41:27;;;;;;;16.42;10.50;;;;;;;7.38;100.00;100493.50;4971344;29;20697;-79
2022/12/24 10:43:58;;;;;;;13.75;9.27;;;;;;;7.29;100.00;100496.50;4952489;29;20567;-78
2022/12/24 10:46:35;;;;;;;13.75;9.27;;;;;;;7.57;100.00;100499.28;4971210;29;20610;-79
2022/12/24 10:49:07;;;;;;;17.35;10.35;;;;;;;7.62;100.00;100505.75;4970971;28;20251;-79
2022/12/24 10:51:43;;;;;;;17.30;11.20;;;;;;;7.41;100.00;100500.34;4953225;29;20219;-79
2022/12/24 10:54:16;;;;;;;14.95;9.25;;;;;;;7.52;100.00;100507.91;4971140;29;20247;-79
2022/12/24 10:56:58;;;;;;;17.83;9.90;;;;;;;7.50;100.00;100506.47;4971713;28;20180;-79
2022/12/24 10:59:30;;;;;;;17.83;10.80;;;;;;;7.66;100.00;100514.28;4952817;29;20250;-80
2022/12/24 11:02:00;;;;;;;33.80;19.65;;;;;;;7.57;100.00;100515.41;4952936;29;20200;-79
2022/12/24 11:04:33;;;;;;;23.95;16.13;;;;;;;7.62;100.00;100513.00;4953997;29;20203;-78
2022/12/24 11:07:05;;;;;;;25.20;16.00;;;;;;;7.73;100.00;100524.09;4970363;28;20222;-78
2022/12/24 11:09:36;;;;;;;22.58;13.77;;;;;;;7.65;100.00;100518.00;4970087;29;20592;-79
2022/12/24 11:12:18;;;;;;;25.20;15.30;;;;;;;7.74;100.00;100522.25;4970795;29;20259;-80
2022/12/24 11:14:48;;;;;;;25.90;15.23;;;;;;;7.82;100.00;100527.50;4951880;29;20203;-79
2022/12/24 11:17:23;;;;;;;18.83;13.50;;;;;;;7.67;100.00;100522.16;4951904;29;20250;-79
2022/12/24 11:19:53;;;;;;;22.67;13.93;;;;;;;7.69;100.00;100527.38;4971511;29;20180;-78
2022/12/24 11:22:25;;;;;;;19.88;12.18;;;;;;;7.60;100.00;100523.13;4954915;29;20192;-81
2022/12/24 11:25:02;;;;;;;19.38;10.50;;;;;;;7.74;100.00;100524.94;4971168;29;20227;-79
2022/12/24 11:27:38;;;;;;;17.60;10.80;;;;;;;7.62;100.00;100529.16;4971182;29;20208;-78
2022/12/24 11:30:24;;;;;;;13.70;9.05;;;;;;;7.61;100.00;100522.94;4977417;29;20164;-78
2022/12/24 11:33:18;;;;;;;35.28;29.83;;;;;;;7.72;100.00;100535.88;4956413;29;20223;-77
2022/12/24 11:35:55;;;;;;;18.50;10.50;;;;;;;7.65;100.00;100528.78;4974214;29;20190;-78
2022/12/24 11:38:26;;;;;;;15.55;8.27;;;;;;;7.52;100.00;100539.41;4972691;29;20211;-77
2022/12/24 11:41:01;;;;;;;11.05;8.77;;;;;;;7.57;100.00;100536.97;4971800;29;20377;-77
2022/12/24 11:43:46;;;;;;;15.30;11.55;;;;;;;7.57;100.00;100536.97;4953171;29;20184;-78
2022/12/24 11:46:20;;;;;;;13.50;8.80;;;;;;;7.58;100.00;100527.88;4968299;29;20208;-78
2022/12/24 11:49:05;;;;;;;15.52;10.43;;;;;;;7.57;100.00;100527.03;4966963;28;20227;-77